Terminal Aerodrome Forecast
Issued by NWS

Home | Current Version | Previous Version | Text Only | Print | Product List | Glossary On
Versions: 1 2 3 4 5 6 7 8 9 10 11 12 13 14 15 16 17 18 19 20 21 22 23 24 25 26
676
FTUS44 KLIX 270520
TAFHDC
TAF
KHDC 270520Z 2706/2806 00000KT P6SM SCT030 SCT050
     FM270700 34004KT P6SM BKN090
      TEMPO 2709/2713 5SM BR SCT005
     FM271800 34004KT P6SM SCT050 BKN200=

USA.gov is the U.S. government's official web portal to all federal, state and local government web resources and services.